Auburn, Maine
Current Conditions -  °F | °C
As of 5:15 PM on Tuesday 21 Oct 2014 (Local Time) from KLEW Reporting Station
Overcast Overcast  
Wind Chill:   Ceiling: 600
Heat Index:   Visibility: 10mi
Dew Point:   Wind: 14mph
Humidity: 87%   Direction: 20°NNE
Pressure: 30.03"   Gusts: NA
Location:  44.1°N, 70.23°W
Report Text: KLEW 212115Z AUTO 02012KT 10SM OVC006 09/07 A3003 RMK AO1
Loading
Personal Weather Stations






























Interactive Weather Map
Tropical Storm Tracking
New forecast layout! Learn more

10-Day Weather Forecast

Advertisements
Track Severe Weather on mobile